Airfield :
LOGIN :

Register | Disclaimer

   EN    FR    IT 

 










Legend :    VFR   Marginal VFR   IFR   Intensive IFR   Very Intensive IFR
Visi :
Ceiling :
>= 8 km
>= 3000ft
5 to 8 km
1000 to 3000 ft
1500m to 5 km
500 to 1000 ft
800 to 1500m
200 to 500 ft
< 800m
< 200 ft
Symbols :   Thunderstorms  Fog  Heavy snow  Heavy precipitations  Wind > 20 kt
SIGMETs :     Misc.  Thunderstorms  Icing  Turbulence  Mountain Waves  Volcanic Ashes






- Airport Elevation : 289 ft
- IATA code : ZAD


LDZD - Zadar

CURRENT METAR :
  • 272230Z 29004KT CAVOK 17/16 Q1017

EXPIRED METARs :
  • 272200Z 30003KT 260V320 CAVOK 17/16 Q1017
  • 272130Z VRB01KT CAVOK 17/17 Q1017 NOSIG
  • 272100Z 00000KT CAVOK 18/18 Q1017 NOSIG
  • 272030Z 07003KT 030V090 CAVOK 17/17 Q1017 NOSIG

TAF TAF LDZD
Valid from the 27 at 18:00 until the 28 at 18:00 UTC


271725Z 2718/2818 VRB02KT 9999 FEW070 TX27/2813Z TN15/2804Z
PROB40
TEMPO 2721/2803 2000 BCFG
PROB30
TEMPO 2722/2801 0500 FG
BECMG 2806/2808 06008KT
TEMPO 2812/2816 32010KT



MET'MAP, your aeronautical weather chart ! - Copyright ORBIFLY December 2007 - Disclaimer

ORBIFLY MET'MAP TEAM :

Programming & Development : Alexandra Zaïnal
Concept & original design : Baudouin d'Aumeries
Assistance for programming : Marc-Olivier Méhu
Technical & hardware support : Manuel Goepfert

Contact : metmap@orbifly.com




SOURCES & CREDITS :

   NOAA